sensor_id;sensor_type;location;lat;lon;timestamp;P1;P4;P2;P0;N10;N4;N25;N1;N05;TS
72225;SPS30;60130;52.250;5.048;2023-06-14T00:00:00;1.95;;1.94;;;;;;;
72225;SPS30;60130;52.250;5.048;2023-06-14T00:05:00;2.31;;2.29;;;;;;;
72225;SPS30;60130;52.250;5.048;2023-06-14T00:10:00;1.85;;1.85;;;;;;;
72225;SPS30;60130;52.250;5.048;2023-06-14T00:15:00;1.82;;1.80;;;;;;;
72225;SPS30;60130;52.250;5.048;2023-06-14T00:20:02;1.75;;1.75;;;;;;;
72225;SPS30;60130;52.250;5.048;2023-06-14T00:25:00;1.47;;1.47;;;;;;;
72225;SPS30;60130;52.250;5.048;2023-06-14T00:30:00;2.09;;2.09;;;;;;;
72225;SPS30;60130;52.250;5.048;2023-06-14T00:35:00;2.03;;2.03;;;;;;;
72225;SPS30;60130;52.250;5.048;2023-06-14T00:40:00;1.70;;1.70;;;;;;;
72225;SPS30;60130;52.250;5.048;2023-06-14T00:45:00;1.77;;1.77;;;;;;;
72225;SPS30;60130;52.250;5.048;2023-06-14T00:50:00;1.81;;1.79;;;;;;;
72225;SPS30;60130;52.250;5.048;2023-06-14T00:55:00;1.84;;1.83;;;;;;;
72225;SPS30;60130;52.250;5.048;2023-06-14T01:00:00;1.79;;1.79;;;;;;;
72225;SPS30;60130;52.250;5.048;2023-06-14T01:05:00;1.80;;1.80;;;;;;;
72225;SPS30;60130;52.250;5.048;2023-06-14T01:10:04;1.59;;1.59;;;;;;;
72225;SPS30;60130;52.250;5.048;2023-06-14T01:15:00;1.55;;1.55;;;;;;;
72225;SPS30;60130;52.250;5.048;2023-06-14T01:20:00;1.89;;1.89;;;;;;;
72225;SPS30;60130;52.250;5.048;2023-06-14T01:25:00;1.96;;1.95;;;;;;;
72225;SPS30;60130;52.250;5.048;2023-06-14T01:30:00;1.95;;1.95;;;;;;;
72225;SPS30;60130;52.250;5.048;2023-06-14T01:35:00;1.70;;1.70;;;;;;;
72225;SPS30;60130;52.250;5.048;2023-06-14T01:40:00;1.53;;1.53;;;;;;;
72225;SPS30;60130;52.250;5.048;2023-06-14T01:45:00;1.72;;1.72;;;;;;;
72225;SPS30;60130;52.250;5.048;2023-06-14T01:50:01;1.55;;1.55;;;;;;;
72225;SPS30;60130;52.250;5.048;2023-06-14T01:55:00;1.98;;1.98;;;;;;;
72225;SPS30;60130;52.250;5.048;2023-06-14T02:00:00;2.38;;2.38;;;;;;;
72225;SPS30;60130;52.250;5.048;2023-06-14T02:05:00;2.04;;2.04;;;;;;;
72225;SPS30;60130;52.250;5.048;2023-06-14T02:10:00;1.62;;1.62;;;;;;;
72225;SPS30;60130;52.250;5.048;2023-06-14T02:15:00;2.20;;2.19;;;;;;;
72225;SPS30;60130;52.250;5.048;2023-06-14T02:20:00;2.23;;2.23;;;;;;;
72225;SPS30;60130;52.250;5.048;2023-06-14T02:25:00;1.68;;1.68;;;;;;;
72225;SPS30;60130;52.250;5.048;2023-06-14T02:30:00;1.78;;1.78;;;;;;;
72225;SPS30;60130;52.250;5.048;2023-06-14T02:35:00;1.98;;1.98;;;;;;;
72225;SPS30;60130;52.250;5.048;2023-06-14T02:40:00;2.01;;2.01;;;;;;;
72225;SPS30;60130;52.250;5.048;2023-06-14T02:45:00;1.77;;1.77;;;;;;;
72225;SPS30;60130;52.250;5.048;2023-06-14T02:50:00;1.45;;1.45;;;;;;;
72225;SPS30;60130;52.250;5.048;2023-06-14T02:55:00;1.70;;1.70;;;;;;;
72225;SPS30;60130;52.250;5.048;2023-06-14T03:00:00;1.51;;1.51;;;;;;;
72225;SPS30;60130;52.250;5.048;2023-06-14T03:05:00;1.84;;1.84;;;;;;;
72225;SPS30;60130;52.250;5.048;2023-06-14T03:10:00;1.56;;1.56;;;;;;;
72225;SPS30;60130;52.250;5.048;2023-06-14T03:15:00;2.15;;2.15;;;;;;;
72225;SPS30;60130;52.250;5.048;2023-06-14T03:20:00;1.91;;1.91;;;;;;;
72225;SPS30;60130;52.250;5.048;2023-06-14T03:25:00;2.12;;2.12;;;;;;;
72225;SPS30;60130;52.250;5.048;2023-06-14T03:30:00;2.23;;2.23;;;;;;;
72225;SPS30;60130;52.250;5.048;2023-06-14T03:35:00;1.76;;1.76;;;;;;;
72225;SPS30;60130;52.250;5.048;2023-06-14T03:40:00;2.04;;2.04;;;;;;;
72225;SPS30;60130;52.250;5.048;2023-06-14T03:45:00;2.31;;2.31;;;;;;;
72225;SPS30;60130;52.250;5.048;2023-06-14T03:50:00;1.90;;1.89;;;;;;;
72225;SPS30;60130;52.250;5.048;2023-06-14T03:55:00;1.77;;1.77;;;;;;;
72225;SPS30;60130;52.250;5.048;2023-06-14T04:00:00;2.07;;2.07;;;;;;;
72225;SPS30;60130;52.250;5.048;2023-06-14T04:05:00;2.02;;2.02;;;;;;;
72225;SPS30;60130;52.250;5.048;2023-06-14T04:10:00;2.33;;2.33;;;;;;;
72225;SPS30;60130;52.250;5.048;2023-06-14T04:15:00;2.37;;2.37;;;;;;;
72225;SPS30;60130;52.250;5.048;2023-06-14T04:20:00;2.20;;2.20;;;;;;;
72225;SPS30;60130;52.250;5.048;2023-06-14T04:25:00;2.36;;2.36;;;;;;;
72225;SPS30;60130;52.250;5.048;2023-06-14T04:30:00;2.25;;2.25;;;;;;;
72225;SPS30;60130;52.250;5.048;2023-06-14T04:35:00;2.20;;2.19;;;;;;;
72225;SPS30;60130;52.250;5.048;2023-06-14T04:40:00;2.00;;2.00;;;;;;;
72225;SPS30;60130;52.250;5.048;2023-06-14T04:45:00;2.00;;2.00;;;;;;;
72225;SPS30;60130;52.250;5.048;2023-06-14T04:50:00;2.03;;2.03;;;;;;;
72225;SPS30;60130;52.250;5.048;2023-06-14T04:55:00;1.73;;1.73;;;;;;;
72225;SPS30;60130;52.250;5.048;2023-06-14T05:00:00;1.82;;1.82;;;;;;;
72225;SPS30;60130;52.250;5.048;2023-06-14T05:05:00;1.79;;1.79;;;;;;;
72225;SPS30;60130;52.250;5.048;2023-06-14T05:10:00;2.09;;2.08;;;;;;;
72225;SPS30;60130;52.250;5.048;2023-06-14T05:15:00;1.69;;1.69;;;;;;;
72225;SPS30;60130;52.250;5.048;2023-06-14T05:20:00;2.00;;2.00;;;;;;;
72225;SPS30;60130;52.250;5.048;2023-06-14T05:25:00;1.72;;1.72;;;;;;;
72225;SPS30;60130;52.250;5.048;2023-06-14T05:30:00;1.44;;1.44;;;;;;;
72225;SPS30;60130;52.250;5.048;2023-06-14T05:35:00;1.61;;1.61;;;;;;;
72225;SPS30;60130;52.250;5.048;2023-06-14T05:40:00;1.53;;1.53;;;;;;;
72225;SPS30;60130;52.250;5.048;2023-06-14T05:45:00;1.29;;1.29;;;;;;;
72225;SPS30;60130;52.250;5.048;2023-06-14T05:50:00;1.54;;1.54;;;;;;;
72225;SPS30;60130;52.250;5.048;2023-06-14T05:55:00;1.71;;1.71;;;;;;;
72225;SPS30;60130;52.250;5.048;2023-06-14T06:00:00;1.93;;1.93;;;;;;;
72225;SPS30;60130;52.250;5.048;2023-06-14T06:05:00;1.70;;1.70;;;;;;;
72225;SPS30;60130;52.250;5.048;2023-06-14T06:10:00;1.88;;1.88;;;;;;;
72225;SPS30;60130;52.250;5.048;2023-06-14T06:15:00;1.67;;1.67;;;;;;;
72225;SPS30;60130;52.250;5.048;2023-06-14T06:20:00;2.70;;2.70;;;;;;;
72225;SPS30;60130;52.250;5.048;2023-06-14T06:25:00;1.64;;1.64;;;;;;;
72225;SPS30;60130;52.250;5.048;2023-06-14T06:30:00;1.82;;1.82;;;;;;;
72225;SPS30;60130;52.250;5.048;2023-06-14T06:35:00;1.64;;1.64;;;;;;;
72225;SPS30;60130;52.250;5.048;2023-06-14T06:40:00;1.46;;1.46;;;;;;;
72225;SPS30;60130;52.250;5.048;2023-06-14T06:45:00;1.68;;1.68;;;;;;;
72225;SPS30;60130;52.250;5.048;2023-06-14T06:50:00;1.93;;1.93;;;;;;;
72225;SPS30;60130;52.250;5.048;2023-06-14T06:55:00;1.62;;1.62;;;;;;;
72225;SPS30;60130;52.250;5.048;2023-06-14T07:00:00;1.26;;1.26;;;;;;;
72225;SPS30;60130;52.250;5.048;2023-06-14T07:05:00;1.67;;1.67;;;;;;;
72225;SPS30;60130;52.250;5.048;2023-06-14T07:10:00;1.64;;1.64;;;;;;;
72225;SPS30;60130;52.250;5.048;2023-06-14T07:15:00;1.77;;1.77;;;;;;;
72225;SPS30;60130;52.250;5.048;2023-06-14T07:20:01;1.94;;1.94;;;;;;;
72225;SPS30;60130;52.250;5.048;2023-06-14T07:25:00;1.99;;1.99;;;;;;;
72225;SPS30;60130;52.250;5.048;2023-06-14T07:30:00;1.57;;1.57;;;;;;;
72225;SPS30;60130;52.250;5.048;2023-06-14T07:35:00;1.99;;1.99;;;;;;;
72225;SPS30;60130;52.250;5.048;2023-06-14T07:40:00;1.67;;1.67;;;;;;;
72225;SPS30;60130;52.250;5.048;2023-06-14T07:45:00;2.06;;2.06;;;;;;;
72225;SPS30;60130;52.250;5.048;2023-06-14T07:50:00;1.87;;1.87;;;;;;;
72225;SPS30;60130;52.250;5.048;2023-06-14T07:55:00;2.21;;2.21;;;;;;;
72225;SPS30;60130;52.250;5.048;2023-06-14T08:00:00;1.61;;1.61;;;;;;;
72225;SPS30;60130;52.250;5.048;2023-06-14T08:05:00;1.63;;1.63;;;;;;;
72225;SPS30;60130;52.250;5.048;2023-06-14T08:10:00;1.34;;1.34;;;;;;;
72225;SPS30;60130;52.250;5.048;2023-06-14T08:15:00;1.15;;1.15;;;;;;;
72225;SPS30;60130;52.250;5.048;2023-06-14T08:20:00;1.85;;1.85;;;;;;;
72225;SPS30;60130;52.250;5.048;2023-06-14T08:25:00;1.51;;1.51;;;;;;;
72225;SPS30;60130;52.250;5.048;2023-06-14T08:30:00;1.65;;1.65;;;;;;;
72225;SPS30;60130;52.250;5.048;2023-06-14T08:35:00;1.74;;1.74;;;;;;;
72225;SPS30;60130;52.250;5.048;2023-06-14T08:40:00;2.05;;2.05;;;;;;;
72225;SPS30;60130;52.250;5.048;2023-06-14T08:45:00;1.37;;1.37;;;;;;;
72225;SPS30;60130;52.250;5.048;2023-06-14T08:50:00;1.64;;1.64;;;;;;;
72225;SPS30;60130;52.250;5.048;2023-06-14T08:55:00;1.56;;1.56;;;;;;;
72225;SPS30;60130;52.250;5.048;2023-06-14T09:00:00;1.92;;1.92;;;;;;;
72225;SPS30;60130;52.250;5.048;2023-06-14T09:05:00;1.96;;1.96;;;;;;;
72225;SPS30;60130;52.250;5.048;2023-06-14T09:10:05;1.39;;1.39;;;;;;;
72225;SPS30;60130;52.250;5.048;2023-06-14T09:15:00;1.26;;1.26;;;;;;;
72225;SPS30;60130;52.250;5.048;2023-06-14T09:20:00;1.18;;1.18;;;;;;;
72225;SPS30;60130;52.250;5.048;2023-06-14T09:25:00;1.16;;1.16;;;;;;;
72225;SPS30;60130;52.250;5.048;2023-06-14T09:30:00;1.13;;1.13;;;;;;;
72225;SPS30;60130;52.250;5.048;2023-06-14T09:35:00;1.38;;1.38;;;;;;;
72225;SPS30;60130;52.250;5.048;2023-06-14T09:40:00;1.38;;1.38;;;;;;;
72225;SPS30;60130;52.250;5.048;2023-06-14T09:45:00;1.16;;1.16;;;;;;;
72225;SPS30;60130;52.250;5.048;2023-06-14T09:50:00;1.21;;1.21;;;;;;;
72225;SPS30;60130;52.250;5.048;2023-06-14T09:55:00;1.28;;1.28;;;;;;;
72225;SPS30;60130;52.250;5.048;2023-06-14T10:00:00;1.20;;1.20;;;;;;;
72225;SPS30;60130;52.250;5.048;2023-06-14T10:05:02;1.40;;1.40;;;;;;;
72225;SPS30;60130;52.250;5.048;2023-06-14T10:10:00;1.16;;1.16;;;;;;;
72225;SPS30;60130;52.250;5.048;2023-06-14T10:15:00;1.27;;1.27;;;;;;;
72225;SPS30;60130;52.250;5.048;2023-06-14T10:20:05;1.43;;1.43;;;;;;;
72225;SPS30;60130;52.250;5.048;2023-06-14T10:25:01;1.39;;1.39;;;;;;;
72225;SPS30;60130;52.250;5.048;2023-06-14T10:30:02;1.19;;1.19;;;;;;;
72225;SPS30;60130;52.250;5.048;2023-06-14T10:35:00;0.95;;0.95;;;;;;;
72225;SPS30;60130;52.250;5.048;2023-06-14T10:40:00;0.99;;0.98;;;;;;;
72225;SPS30;60130;52.250;5.048;2023-06-14T10:45:00;0.82;;0.82;;;;;;;
72225;SPS30;60130;52.250;5.048;2023-06-14T10:50:03;0.95;;0.95;;;;;;;
72225;SPS30;60130;52.250;5.048;2023-06-14T10:55:01;1.31;;1.31;;;;;;;
72225;SPS30;60130;52.250;5.048;2023-06-14T11:00:00;1.05;;1.05;;;;;;;
72225;SPS30;60130;52.250;5.048;2023-06-14T11:05:02;1.06;;1.06;;;;;;;
72225;SPS30;60130;52.250;5.048;2023-06-14T11:10:05;1.17;;1.17;;;;;;;
72225;SPS30;60130;52.250;5.048;2023-06-14T11:15:00;1.21;;1.21;;;;;;;
72225;SPS30;60130;52.250;5.048;2023-06-14T11:20:08;1.15;;1.15;;;;;;;
72225;SPS30;60130;52.250;5.048;2023-06-14T11:25:01;1.25;;1.25;;;;;;;
72225;SPS30;60130;52.250;5.048;2023-06-14T11:30:00;1.33;;1.33;;;;;;;
72225;SPS30;60130;52.250;5.048;2023-06-14T11:35:00;1.47;;1.47;;;;;;;
72225;SPS30;60130;52.250;5.048;2023-06-14T11:40:00;1.29;;1.29;;;;;;;
72225;SPS30;60130;52.250;5.048;2023-06-14T11:45:00;1.51;;1.51;;;;;;;
72225;SPS30;60130;52.250;5.048;2023-06-14T11:50:00;1.07;;1.07;;;;;;;
72225;SPS30;60130;52.250;5.048;2023-06-14T11:55:00;1.32;;1.32;;;;;;;
72225;SPS30;60130;52.250;5.048;2023-06-14T12:00:00;0.90;;0.90;;;;;;;
72225;SPS30;60130;52.250;5.048;2023-06-14T12:05:04;1.17;;1.17;;;;;;;
72225;SPS30;60130;52.250;5.048;2023-06-14T12:10:03;0.91;;0.91;;;;;;;
72225;SPS30;60130;52.250;5.048;2023-06-14T12:15:02;1.23;;1.23;;;;;;;
72225;SPS30;60130;52.250;5.048;2023-06-14T12:20:05;0.84;;0.84;;;;;;;
72225;SPS30;60130;52.250;5.048;2023-06-14T12:25:00;1.06;;1.06;;;;;;;
72225;SPS30;60130;52.250;5.048;2023-06-14T12:30:00;0.92;;0.92;;;;;;;
72225;SPS30;60130;52.250;5.048;2023-06-14T12:35:00;1.05;;1.05;;;;;;;
72225;SPS30;60130;52.250;5.048;2023-06-14T12:40:00;0.88;;0.88;;;;;;;
72225;SPS30;60130;52.250;5.048;2023-06-14T12:45:00;0.82;;0.82;;;;;;;
72225;SPS30;60130;52.250;5.048;2023-06-14T12:50:00;1.09;;1.09;;;;;;;
72225;SPS30;60130;52.250;5.048;2023-06-14T12:55:00;0.92;;0.92;;;;;;;
72225;SPS30;60130;52.250;5.048;2023-06-14T13:00:00;0.89;;0.89;;;;;;;
72225;SPS30;60130;52.250;5.048;2023-06-14T13:05:00;0.94;;0.94;;;;;;;
72225;SPS30;60130;52.250;5.048;2023-06-14T13:10:00;0.80;;0.80;;;;;;;
72225;SPS30;60130;52.250;5.048;2023-06-14T13:15:00;0.99;;0.99;;;;;;;
72225;SPS30;60130;52.250;5.048;2023-06-14T13:20:00;1.07;;1.07;;;;;;;
72225;SPS30;60130;52.250;5.048;2023-06-14T13:25:00;1.00;;1.00;;;;;;;
72225;SPS30;60130;52.250;5.048;2023-06-14T13:30:00;0.72;;0.72;;;;;;;
72225;SPS30;60130;52.250;5.048;2023-06-14T13:35:00;1.07;;1.07;;;;;;;
72225;SPS30;60130;52.250;5.048;2023-06-14T13:40:00;0.89;;0.89;;;;;;;
72225;SPS30;60130;52.250;5.048;2023-06-14T13:45:00;0.85;;0.85;;;;;;;
72225;SPS30;60130;52.250;5.048;2023-06-14T13:50:00;1.13;;1.13;;;;;;;
72225;SPS30;60130;52.250;5.048;2023-06-14T13:55:00;0.71;;0.71;;;;;;;
72225;SPS30;60130;52.250;5.048;2023-06-14T14:00:00;1.01;;1.01;;;;;;;
72225;SPS30;60130;52.250;5.048;2023-06-14T14:05:00;0.79;;0.79;;;;;;;
72225;SPS30;60130;52.250;5.048;2023-06-14T14:10:00;0.93;;0.93;;;;;;;
72225;SPS30;60130;52.250;5.048;2023-06-14T14:15:00;1.23;;1.23;;;;;;;
72225;SPS30;60130;52.250;5.048;2023-06-14T14:20:00;0.64;;0.64;;;;;;;
72225;SPS30;60130;52.250;5.048;2023-06-14T14:25:00;1.03;;1.03;;;;;;;
72225;SPS30;60130;52.250;5.048;2023-06-14T14:30:00;0.92;;0.92;;;;;;;
72225;SPS30;60130;52.250;5.048;2023-06-14T14:35:00;0.70;;0.70;;;;;;;
72225;SPS30;60130;52.250;5.048;2023-06-14T14:40:00;0.63;;0.63;;;;;;;
72225;SPS30;60130;52.250;5.048;2023-06-14T14:45:00;1.17;;1.17;;;;;;;
72225;SPS30;60130;52.250;5.048;2023-06-14T14:50:00;1.29;;1.29;;;;;;;
72225;SPS30;60130;52.250;5.048;2023-06-14T14:55:00;1.09;;1.09;;;;;;;
72225;SPS30;60130;52.250;5.048;2023-06-14T15:00:00;0.93;;0.93;;;;;;;
72225;SPS30;60130;52.250;5.048;2023-06-14T15:05:00;1.24;;1.24;;;;;;;
72225;SPS30;60130;52.250;5.048;2023-06-14T15:10:00;0.83;;0.83;;;;;;;
72225;SPS30;60130;52.250;5.048;2023-06-14T15:15:00;0.82;;0.82;;;;;;;
72225;SPS30;60130;52.250;5.048;2023-06-14T15:20:00;1.17;;1.17;;;;;;;
72225;SPS30;60130;52.250;5.048;2023-06-14T15:25:00;0.79;;0.79;;;;;;;
72225;SPS30;60130;52.250;5.048;2023-06-14T15:30:00;1.10;;1.10;;;;;;;
72225;SPS30;60130;52.250;5.048;2023-06-14T15:35:00;1.10;;1.10;;;;;;;
72225;SPS30;60130;52.250;5.048;2023-06-14T15:40:00;0.82;;0.82;;;;;;;
72225;SPS30;60130;52.250;5.048;2023-06-14T15:45:00;0.94;;0.94;;;;;;;
72225;SPS30;60130;52.250;5.048;2023-06-14T15:50:00;0.98;;0.98;;;;;;;
72225;SPS30;60130;52.250;5.048;2023-06-14T15:55:00;0.89;;0.89;;;;;;;
72225;SPS30;60130;52.250;5.048;2023-06-14T16:00:00;0.94;;0.94;;;;;;;
72225;SPS30;60130;52.250;5.048;2023-06-14T16:05:00;1.07;;1.07;;;;;;;
72225;SPS30;60130;52.250;5.048;2023-06-14T16:10:00;1.00;;1.00;;;;;;;
72225;SPS30;60130;52.250;5.048;2023-06-14T16:15:00;0.89;;0.89;;;;;;;
72225;SPS30;60130;52.250;5.048;2023-06-14T16:20:00;0.85;;0.85;;;;;;;
72225;SPS30;60130;52.250;5.048;2023-06-14T16:25:00;0.88;;0.88;;;;;;;
72225;SPS30;60130;52.250;5.048;2023-06-14T16:30:00;0.98;;0.98;;;;;;;
72225;SPS30;60130;52.250;5.048;2023-06-14T16:35:00;0.64;;0.64;;;;;;;
72225;SPS30;60130;52.250;5.048;2023-06-14T16:40:00;0.86;;0.86;;;;;;;
72225;SPS30;60130;52.250;5.048;2023-06-14T16:45:00;0.91;;0.91;;;;;;;
72225;SPS30;60130;52.250;5.048;2023-06-14T16:50:00;1.21;;1.21;;;;;;;
72225;SPS30;60130;52.250;5.048;2023-06-14T16:55:00;0.81;;0.81;;;;;;;
72225;SPS30;60130;52.250;5.048;2023-06-14T17:00:00;0.92;;0.92;;;;;;;
72225;SPS30;60130;52.250;5.048;2023-06-14T17:05:00;0.99;;0.99;;;;;;;
72225;SPS30;60130;52.250;5.048;2023-06-14T17:10:00;0.73;;0.73;;;;;;;
72225;SPS30;60130;52.250;5.048;2023-06-14T17:15:01;0.86;;0.86;;;;;;;
72225;SPS30;60130;52.250;5.048;2023-06-14T17:20:00;1.06;;1.06;;;;;;;
72225;SPS30;60130;52.250;5.048;2023-06-14T17:25:00;1.06;;1.06;;;;;;;
72225;SPS30;60130;52.250;5.048;2023-06-14T17:30:00;0.73;;0.73;;;;;;;
72225;SPS30;60130;52.250;5.048;2023-06-14T17:35:00;0.91;;0.91;;;;;;;
72225;SPS30;60130;52.250;5.048;2023-06-14T17:40:00;1.11;;1.11;;;;;;;
72225;SPS30;60130;52.250;5.048;2023-06-14T17:45:00;1.51;;1.51;;;;;;;
72225;SPS30;60130;52.250;5.048;2023-06-14T17:50:00;1.20;;1.20;;;;;;;
72225;SPS30;60130;52.250;5.048;2023-06-14T17:55:00;1.14;;1.14;;;;;;;
72225;SPS30;60130;52.250;5.048;2023-06-14T18:00:00;0.92;;0.92;;;;;;;
72225;SPS30;60130;52.250;5.048;2023-06-14T18:05:00;1.37;;1.37;;;;;;;
72225;SPS30;60130;52.250;5.048;2023-06-14T18:10:00;1.15;;1.15;;;;;;;
72225;SPS30;60130;52.250;5.048;2023-06-14T18:15:00;0.88;;0.88;;;;;;;
72225;SPS30;60130;52.250;5.048;2023-06-14T18:20:00;1.25;;1.25;;;;;;;
72225;SPS30;60130;52.250;5.048;2023-06-14T18:25:00;0.93;;0.93;;;;;;;
72225;SPS30;60130;52.250;5.048;2023-06-14T18:30:00;1.34;;1.34;;;;;;;
72225;SPS30;60130;52.250;5.048;2023-06-14T18:35:00;0.90;;0.90;;;;;;;
72225;SPS30;60130;52.250;5.048;2023-06-14T18:40:00;0.97;;0.97;;;;;;;
72225;SPS30;60130;52.250;5.048;2023-06-14T18:45:00;0.90;;0.90;;;;;;;
72225;SPS30;60130;52.250;5.048;2023-06-14T18:50:00;1.10;;1.10;;;;;;;
72225;SPS30;60130;52.250;5.048;2023-06-14T18:55:00;0.89;;0.89;;;;;;;
72225;SPS30;60130;52.250;5.048;2023-06-14T19:00:00;0.83;;0.83;;;;;;;
72225;SPS30;60130;52.250;5.048;2023-06-14T19:15:00;1.27;;1.27;;;;;;;
72225;SPS30;60130;52.250;5.048;2023-06-14T19:20:00;1.19;;1.19;;;;;;;
72225;SPS30;60130;52.250;5.048;2023-06-14T19:25:00;1.53;;1.53;;;;;;;
72225;SPS30;60130;52.250;5.048;2023-06-14T19:30:00;1.68;;1.68;;;;;;;
72225;SPS30;60130;52.250;5.048;2023-06-14T19:35:00;1.31;;1.31;;;;;;;
72225;SPS30;60130;52.250;5.048;2023-06-14T19:40:00;1.85;;1.85;;;;;;;
72225;SPS30;60130;52.250;5.048;2023-06-14T19:45:00;1.43;;1.43;;;;;;;
72225;SPS30;60130;52.250;5.048;2023-06-14T19:50:00;1.29;;1.29;;;;;;;
72225;SPS30;60130;52.250;5.048;2023-06-14T19:55:00;1.42;;1.42;;;;;;;
72225;SPS30;60130;52.250;5.048;2023-06-14T20:00:00;1.78;;1.78;;;;;;;
72225;SPS30;60130;52.250;5.048;2023-06-14T20:05:00;1.62;;1.62;;;;;;;
72225;SPS30;60130;52.250;5.048;2023-06-14T20:10:00;1.79;;1.79;;;;;;;
72225;SPS30;60130;52.250;5.048;2023-06-14T20:15:00;1.41;;1.41;;;;;;;
72225;SPS30;60130;52.250;5.048;2023-06-14T20:20:00;2.43;;2.43;;;;;;;
72225;SPS30;60130;52.250;5.048;2023-06-14T20:25:00;1.48;;1.48;;;;;;;
72225;SPS30;60130;52.250;5.048;2023-06-14T20:30:00;1.53;;1.53;;;;;;;
72225;SPS30;60130;52.250;5.048;2023-06-14T20:35:00;1.70;;1.70;;;;;;;
72225;SPS30;60130;52.250;5.048;2023-06-14T20:40:00;1.12;;1.12;;;;;;;
72225;SPS30;60130;52.250;5.048;2023-06-14T20:45:00;1.18;;1.18;;;;;;;
72225;SPS30;60130;52.250;5.048;2023-06-14T20:50:00;1.36;;1.36;;;;;;;
72225;SPS30;60130;52.250;5.048;2023-06-14T20:55:00;1.37;;1.37;;;;;;;
72225;SPS30;60130;52.250;5.048;2023-06-14T21:00:00;1.40;;1.40;;;;;;;
72225;SPS30;60130;52.250;5.048;2023-06-14T21:05:00;1.59;;1.59;;;;;;;
72225;SPS30;60130;52.250;5.048;2023-06-14T21:10:00;1.47;;1.47;;;;;;;
72225;SPS30;60130;52.250;5.048;2023-06-14T21:15:00;1.24;;1.24;;;;;;;
72225;SPS30;60130;52.250;5.048;2023-06-14T21:20:00;1.23;;1.23;;;;;;;
72225;SPS30;60130;52.250;5.048;2023-06-14T21:25:00;1.20;;1.20;;;;;;;
72225;SPS30;60130;52.250;5.048;2023-06-14T21:30:00;1.19;;1.19;;;;;;;
72225;SPS30;60130;52.250;5.048;2023-06-14T21:35:00;1.62;;1.62;;;;;;;
72225;SPS30;60130;52.250;5.048;2023-06-14T21:40:00;1.60;;1.60;;;;;;;
72225;SPS30;60130;52.250;5.048;2023-06-14T21:45:00;1.53;;1.53;;;;;;;
72225;SPS30;60130;52.250;5.048;2023-06-14T21:50:00;1.16;;1.16;;;;;;;
72225;SPS30;60130;52.250;5.048;2023-06-14T21:55:00;1.54;;1.54;;;;;;;
72225;SPS30;60130;52.250;5.048;2023-06-14T22:00:00;1.36;;1.36;;;;;;;
72225;SPS30;60130;52.250;5.048;2023-06-14T22:05:00;1.30;;1.30;;;;;;;
72225;SPS30;60130;52.250;5.048;2023-06-14T22:10:00;1.59;;1.59;;;;;;;
72225;SPS30;60130;52.250;5.048;2023-06-14T22:15:00;1.61;;1.61;;;;;;;
72225;SPS30;60130;52.250;5.048;2023-06-14T22:20:00;1.38;;1.38;;;;;;;
72225;SPS30;60130;52.250;5.048;2023-06-14T22:25:00;1.47;;1.47;;;;;;;
72225;SPS30;60130;52.250;5.048;2023-06-14T22:30:00;1.59;;1.59;;;;;;;
72225;SPS30;60130;52.250;5.048;2023-06-14T22:35:00;1.51;;1.51;;;;;;;
72225;SPS30;60130;52.250;5.048;2023-06-14T22:40:00;2.06;;2.06;;;;;;;
72225;SPS30;60130;52.250;5.048;2023-06-14T22:45:00;1.57;;1.57;;;;;;;
72225;SPS30;60130;52.250;5.048;2023-06-14T22:50:00;1.99;;1.99;;;;;;;
72225;SPS30;60130;52.250;5.048;2023-06-14T22:55:00;2.17;;2.17;;;;;;;
72225;SPS30;60130;52.250;5.048;2023-06-14T23:00:00;2.07;;2.07;;;;;;;
72225;SPS30;60130;52.250;5.048;2023-06-14T23:05:00;2.04;;2.04;;;;;;;
72225;SPS30;60130;52.250;5.048;2023-06-14T23:10:00;1.86;;1.86;;;;;;;
72225;SPS30;60130;52.250;5.048;2023-06-14T23:15:00;2.24;;2.24;;;;;;;
72225;SPS30;60130;52.250;5.048;2023-06-14T23:20:01;2.31;;2.31;;;;;;;
72225;SPS30;60130;52.250;5.048;2023-06-14T23:25:00;1.98;;1.98;;;;;;;
72225;SPS30;60130;52.250;5.048;2023-06-14T23:30:00;2.36;;2.36;;;;;;;
72225;SPS30;60130;52.250;5.048;2023-06-14T23:35:00;1.97;;1.97;;;;;;;
72225;SPS30;60130;52.250;5.048;2023-06-14T23:40:00;2.14;;2.14;;;;;;;
72225;SPS30;60130;52.250;5.048;2023-06-14T23:45:00;2.77;;2.77;;;;;;;
72225;SPS30;60130;52.250;5.048;2023-06-14T23:50:00;1.91;;1.91;;;;;;;
72225;SPS30;60130;52.250;5.048;2023-06-14T23:55:00;2.46;;2.46;;;;;;;
